Aviation Digital Data Service (ADDS)

Output produced by TAFs form (0631 UTC 27 March 2017)
found at http://www.aviationweather.gov/adds/tafs/
 
METAR text: LSZH 270620Z VRB01KT CAVOK 03/M02 Q1022 NOSIG
Conditions at: LSZH (ZURICH-KLOTEN (A, CH) observed 0620 UTC 27 March 2017
Temperature: 3.0°C (37°F)
Dewpoint: -2.0°C (28°F) [RH = 70%]
Pressure (altimeter): 30.18 inches Hg (1022.0 mb)
Winds: variable direction winds at 1 MPH (1 knots; 0.5 m/s)
Visibility: 6 or more miles (10+ km)
Ceiling: ceiling and visibility are OK
Clouds: unknown
Weather: no significant weather observed at this time

Forecast for: LSZH (ZURICH-KLOTEN (A, CH)
Text: TAF LSZH 270525Z 2706/2812 VRB03KT CAVOK TX17/2715Z TN01/2706Z TN01/2805Z
Forecast period: 0600 UTC 27 March 2017 to 1200 UTC 28 March 2017
Forecast type: FROM: standard forecast or significant change
Winds: variable direction winds at 3 MPH (3 knots; 1.6 m/s)
Visibility: 6 or more miles (10+ km)
Clouds: not forecast
Weather: no significant weather forecast for this period
Text: PROB40 2804/2807 4000 BR NSC
Forecast period: 0400 to 0700 UTC 28 March 2017
Forecast type: PROBABLE: 40 percent likelihood of the following during this time
Visibility: 2.49 miles (4.01 km)
Weather: BR  (mist)